Latest Weather Observations for Sheoaks

IDV60801

Issued at 5:32 am EDT Saturday 19 October 2019 (issued every 10 minutes, with the page automatically refreshed every 10 minutes)

About weather observations | Map of weather stations | Latest weather observations for VIC | Other Formats
Station Details ID: 087168 Name: SHEOAKS Lat: -37.91 Lon: 144.13 Height: 236.7 m
Data from the previous 72 hours. | See also: Recent months at Sheoaks
Date/Time
EDT
Temp
°C
App
Temp
°C
Dew
Point
°C
Rel
Hum
%
Delta-T
°C
Wind Press
QNH
hPa
Press
MSL
hPa
Rain since
9am
mm
Dir  Spd
km/h
Gust
km/h
Spd
kts
Gust
kts
19/05:30am 6.5 0.6 3.7 82 1.2 W 24 44 13 24 1012.5 1012.4 1.6
19/05:00am 6.5 1.9 3.7 82 1.2 WNW 17 22 9 12 1012.6 1012.5 1.6
19/04:30am 7.0 1.1 4.1 82 1.3 W 24 43 13 23 1012.5 1012.4 1.6
19/04:00am 7.4 2.5 4.0 79 1.5 W 19 28 10 15 1012.6 1012.5 1.4
19/03:30am 7.9 3.5 4.7 80 1.4 WNW 17 26 9 14 1012.6 1012.5 1.4
19/03:00am 7.8 3.0 4.7 81 1.4 WNW 19 30 10 16 1012.7 1012.6 1.4
19/02:30am 7.6 4.0 4.9 83 1.2 WNW 13 19 7 10 1012.7 1012.6 1.4
19/02:00am 7.5 3.9 4.8 83 1.2 NW 13 20 7 11 1012.8 1012.7 1.4
19/01:30am 7.7 4.1 5.0 83 1.2 WNW 13 20 7 11 1012.8 1012.7 1.4
19/01:00am 8.2 4.3 5.5 83 1.2 WNW 15 22 8 12 1013.3 1013.2 1.4
19/12:30am 8.6 4.4 5.9 83 1.2 WNW 17 28 9 15 1013.4 1013.3 1.4
19/12:00am 8.3 5.7 6.3 87 0.9 WNW 9 17 5 9 1013.4 1013.3 1.4
 
Date/Time
EDT
Temp
°C
App
Temp
°C
Dew
Point
°C
Rel
Hum
%
Delta-T
°C
Wind Press
QNH
hPa
Press
MSL
hPa
Rain since
9am
mm
Dir  Spd
km/h
Gust
km/h
Spd
kts
Gust
kts
18/11:30pm 8.3 4.9 6.1 86 1.0 WNW 13 20 7 11 1013.3 1013.2 1.4
18/11:00pm 9.0 5.4 6.6 85 1.1 WNW 15 22 8 12 1013.2 1013.1 1.4
18/10:30pm 9.2 6.5 7.2 87 1.0 NW 11 19 6 10 1013.2 1013.1 1.4
18/10:00pm 9.3 6.2 7.4 88 0.9 NW 13 20 7 11 1013.2 1013.1 1.4
18/09:30pm 9.8 6.1 8.1 89 0.8 WNW 17 26 9 14 1012.9 1012.8 1.4
18/09:00pm 9.8 5.8 8.4 91 0.7 W 19 28 10 15 1012.8 1012.7 1.4
18/08:30pm 9.0 3.5 7.6 91 0.7 W 26 43 14 23 1012.6 1012.5 1.4
18/08:03pm 9.9 4.2 8.3 90 0.8 W 28 46 15 25 1012.2 1012.1 1.0
18/08:00pm 10.7 5.2 9.1 90 0.8 W 28 46 15 25 1012.0 1011.9 0.8
18/07:30pm 11.0 5.6 9.6 91 0.7 W 28 52 15 28 1011.3 1011.3 0.6
18/07:26pm 11.0 5.6 9.6 91 0.7 W 28 52 15 28 1011.2 1011.2 0.6
18/07:00pm 12.4 7.1 6.7 68 2.8 WSW 24 39 13 21 1010.7 1010.6 0.0
18/06:30pm 16.6 9.8 5.3 47 5.5 WNW 30 46 16 25 1009.1 1009.0 0.0
18/06:00pm 16.8 12.0 5.7 48 5.4 WNW 20 33 11 18 1009.2 1009.1 0.0
18/05:30pm 16.8 11.1 5.1 46 5.7 NW 24 41 13 22 1009.2 1009.1 0.0
18/05:11pm 17.1 10.2 4.8 44 5.9 NW 30 48 16 26 1009.1 1009.0 0.0
18/05:00pm 16.9 11.4 5.8 48 5.5 NW 24 43 13 23 1009.3 1009.2 0.0
18/04:32pm 17.5 11.3 6.1 47 5.7 NW 28 46 15 25 1009.5 1009.4 0.0
18/04:30pm 17.4 10.7 5.7 46 5.8 NW 30 46 16 25 1009.5 1009.4 0.0
18/04:15pm 17.9 11.8 6.4 47 5.8 NW 28 46 15 25 1009.7 1009.6 0.0
18/04:00pm 17.4 11.0 5.4 45 5.9 NW 28 44 15 24 1009.8 1009.7 0.0
18/03:35pm 16.6 9.5 5.6 48 5.4 NW 32 57 17 31 1010.0 1009.9 0.0
18/03:30pm 16.4 9.1 5.4 48 5.3 NW 33 50 18 27 1010.2 1010.1 0.0
18/03:01pm 16.5 8.8 5.5 48 5.3 NW 35 65 19 35 1010.4 1010.3 0.0
18/03:00pm 16.3 8.7 5.6 49 5.2 NW 35 54 19 29 1010.4 1010.3 0.0
18/02:34pm 16.8 9.9 6.6 51 5.1 NW 32 54 17 29 1010.6 1010.5 0.0
18/02:30pm 16.6 9.4 6.1 50 5.2 NW 33 52 18 28 1010.6 1010.5 0.0
18/02:00pm 16.1 9.0 6.3 52 4.8 NW 33 59 18 32 1011.0 1011.0 0.0
18/01:30pm 15.4 9.2 6.2 54 4.5 NW 28 54 15 29 1011.2 1011.2 0.0
18/01:00pm 14.8 7.8 5.9 55 4.3 NW 32 65 17 35 1012.0 1011.9 0.0
18/12:30pm 14.2 6.7 6.3 59 3.8 NW 35 54 19 29 1012.3 1012.2 0.0
18/12:00pm 13.4 6.2 5.8 60 3.6 NW 33 61 18 33 1012.5 1012.4 0.0
18/11:56am 13.6 7.1 6.5 62 3.5 NW 30 56 16 30 1012.6 1012.5 0.0
18/11:30am 12.8 6.6 6.2 64 3.2 NW 28 44 15 24 1013.1 1013.0 0.0
18/11:00am 12.0 6.5 6.1 67 2.8 NW 24 35 13 19 1013.6 1013.5 0.0
18/10:30am 11.6 6.5 5.9 68 2.7 NW 22 39 12 21 1014.0 1013.9 0.0
18/10:00am 11.1 5.8 5.0 66 2.8 NW 22 44 12 24 1014.1 1014.0 0.0
18/09:30am 10.4 4.2 4.5 67 2.7 NW 26 39 14 21 1014.3 1014.2 0.0
18/09:00am 9.6 4.8 4.6 71 2.3 NNW 19 28 10 15 1014.5 1014.4 3.6
18/08:30am 8.3 3.8 4.1 75 1.9 NNW 17 24 9 13 1014.6 1014.6 3.6
18/08:00am 7.0 2.3 3.4 78 1.5 NNW 17 24 9 13 1014.6 1014.6 3.6
18/07:30am 5.6 1.6 3.1 84 1.1 NNW 13 19 7 10 1014.6 1014.6 3.6
18/07:00am 4.4 0.7 2.3 86 0.9 NNW 11 17 6 9 1014.7 1014.7 3.6
18/06:30am 4.0 1.0 1.9 86 0.8 NNW 7 11 4 6 1014.6 1014.6 3.6
18/06:00am 4.2 0.8 2.1 86 0.8 NNW 9 15 5 8 1014.6 1014.6 3.6
18/05:30am 3.5 0.0 1.4 86 0.8 N 9 11 5 6 1014.7 1014.7 3.6
18/05:00am 4.0 0.9 1.5 84 1.0 NNW 7 11 4 6 1015.0 1015.0 3.6
18/04:30am 4.5 1.5 1.9 83 1.0 NNW 7 9 4 5 1014.9 1014.9 3.6
18/04:00am 5.0 1.3 2.2 82 1.1 NNW 11 17 6 9 1015.1 1015.1 3.6
18/03:30am 5.5 2.5 2.3 80 1.3 NNW 7 11 4 6 1015.5 1015.5 3.6
18/03:00am 6.4 3.2 2.9 78 1.5 NW 9 13 5 7 1015.6 1015.6 3.6
18/02:30am 7.3 4.2 3.7 78 1.6 NW 9 13 5 7 1015.8 1015.8 3.6
18/02:00am 7.2 4.5 3.6 78 1.6 NW 7 13 4 7 1016.0 1015.9 3.6
18/01:30am 7.1 4.3 3.3 77 1.6 NNW 7 9 4 5 1016.3 1016.2 3.6
18/01:00am 7.1 4.5 3.0 75 1.7 NNW 6 9 3 5 1016.3 1016.2 3.6
18/12:30am 7.1 4.5 3.0 75 1.7 NW 6 9 3 5 1016.6 1016.5 3.6
18/12:00am 7.3 4.1 3.2 75 1.8 WNW 9 19 5 10 1016.6 1016.5 3.6
 
Date/Time
EDT
Temp
°C
App
Temp
°C
Dew
Point
°C
Rel
Hum
%
Delta-T
°C
Wind Press
QNH
hPa
Press
MSL
hPa
Rain since
9am
mm
Dir  Spd
km/h
Gust
km/h
Spd
kts
Gust
kts
17/11:30pm 7.5 3.9 5.0 84 1.1 WNW 13 20 7 11 1016.6 1016.5 3.6
17/11:00pm 8.0 4.6 6.0 87 0.9 WNW 13 20 7 11 1016.8 1016.7 3.6
17/10:30pm 8.6 5.0 6.9 89 0.8 W 15 22 8 12 1016.8 1016.7 3.6
17/10:00pm 8.5 4.6 7.0 90 0.7 W 17 24 9 13 1016.8 1016.7 3.6
17/09:30pm 8.7 6.0 7.2 90 0.7 W 11 19 6 10 1016.5 1016.4 3.6
17/09:00pm 8.7 5.2 7.2 90 0.7 W 15 24 8 13 1016.2 1016.1 3.6
17/08:30pm 8.8 4.9 7.1 89 0.8 W 17 28 9 15 1015.5 1015.5 3.6
17/08:00pm 9.5 5.0 7.1 85 1.1 WSW 20 32 11 17 1015.0 1015.0 3.6
17/07:30pm 9.5 4.5 6.4 81 1.5 WSW 22 37 12 20 1014.5 1014.4 3.6
17/07:00pm 10.5 6.8 6.3 75 2.0 WSW 15 28 8 15 1013.7 1013.6 3.6
17/06:30pm 11.8 8.2 6.7 71 2.5 WSW 15 26 8 14 1013.2 1013.1 3.6
17/06:00pm 10.8 5.9 6.7 76 2.0 WSW 22 37 12 20 1012.7 1012.6 3.6
17/05:30pm 11.4 5.2 6.3 71 2.4 WSW 28 50 15 27 1012.3 1012.2 3.6
17/05:21pm 11.6 5.1 6.5 71 2.4 WSW 30 50 16 27 1012.1 1012.0 3.6
17/05:00pm 11.5 5.6 7.6 77 1.9 WSW 28 46 15 25 1011.6 1011.5 3.6
17/04:34pm 10.6 4.7 7.3 80 1.6 WSW 28 48 15 26 1011.3 1011.3 3.6
17/04:30pm 10.3 4.6 6.6 78 1.8 WSW 26 48 14 26 1011.3 1011.3 3.6
17/04:00pm 10.7 4.8 5.9 72 2.3 WSW 26 43 14 23 1010.6 1010.5 3.6
17/03:30pm 11.2 5.7 7.7 79 1.7 W 26 41 14 22 1010.3 1010.2 3.4
17/03:05pm 11.0 4.4 7.9 81 1.5 W 32 54 17 29 1010.2 1010.1 3.4
17/03:00pm 11.1 5.1 8.5 84 1.3 WNW 30 48 16 26 1010.3 1010.2 3.4
17/02:30pm 9.3 2.9 7.1 86 1.0 WNW 30 43 16 23 1010.4 1010.3 3.4
17/02:00pm 9.2 4.3 6.8 85 1.1 WNW 22 35 12 19 1010.2 1010.1 2.8
17/01:30pm 8.3 1.3 5.9 85 1.1 WNW 32 50 17 27 1010.2 1010.1 2.2
17/01:06pm 9.0 2.4 5.9 81 1.4 W 30 56 16 30 1009.8 1009.7 1.0
17/01:00pm 8.8 2.1 5.7 81 1.4 WNW 30 46 16 25 1009.9 1009.8 1.0
17/12:41pm 8.6 2.5 6.4 86 1.0 WNW 28 52 15 28 1009.8 1009.7 1.0
17/12:30pm 7.5 1.5 5.1 85 1.1 WNW 26 41 14 22 1009.9 1009.8 1.0
17/12:00pm 9.3 2.7 5.9 79 1.6 WNW 30 54 16 29 1009.8 1009.7 0.0
17/11:30am 10.2 2.3 4.4 67 2.6 W 35 56 19 30 1009.3 1009.2 0.0
17/11:25am 10.5 3.0 4.2 65 2.8 W 33 56 18 30 1009.2 1009.1 0.0
17/11:00am 10.2 2.9 4.4 67 2.6 W 32 50 17 27 1009.1 1009.0 0.0
17/10:30am 10.0 2.8 4.8 70 2.4 W 32 50 17 27 1009.1 1009.0 0.0
17/10:14am 10.1 3.8 5.5 73 2.1 W 28 48 15 26 1009.0 1008.9 0.0
17/10:00am 9.7 2.6 5.3 74 2.0 W 32 50 17 27 1008.8 1008.7 0.0
17/09:43am 8.1 1.5 4.3 77 1.7 W 28 48 15 26 1008.9 1008.8 0.0
17/09:30am 9.1 1.9 5.1 76 1.8 W 32 46 17 25 1008.6 1008.5 0.0
17/09:00am 7.8 0.4 5.1 83 1.2 WNW 33 52 18 28 1008.5 1008.4 6.8
17/08:51am 7.4 0.9 4.9 84 1.1 WNW 28 52 15 28 1008.5 1008.4 6.8
17/08:30am 7.3 1.5 4.6 83 1.2 WNW 24 41 13 22 1008.1 1008.0 6.8
17/08:00am 7.7 1.1 4.3 79 1.5 WNW 28 44 15 24 1007.8 1007.7 6.8
17/07:30am 7.4 1.2 4.2 80 1.4 WNW 26 43 14 23 1007.4 1007.2 6.6
17/07:00am 6.8 0.8 3.6 80 1.4 WNW 24 37 13 20 1006.6 1006.5 6.6
17/06:30am 6.8 0.1 3.4 79 1.5 WNW 28 39 15 21 1006.2 1006.1 6.6
17/06:00am 7.2 1.7 3.8 79 1.5 WNW 22 37 12 20 1006.0 1005.9 6.6
17/05:30am 7.5 2.1 4.5 81 1.3 WNW 22 35 12 19 1005.9 1005.8 6.6
17/05:00am 7.7 2.8 5.2 84 1.1 WNW 20 35 11 19 1006.0 1005.9 6.6
17/04:30am 7.6 3.3 5.4 86 1.0 WNW 17 22 9 12 1006.2 1006.1 6.6
17/04:00am 8.3 4.0 6.8 90 0.7 WNW 19 32 10 17 1006.7 1006.6 6.4
17/03:30am 8.0 4.7 6.6 91 0.7 WNW 13 19 7 10 1006.9 1006.8 6.4
17/03:00am 8.2 5.0 7.0 92 0.6 WNW 13 26 7 14 1007.2 1007.0 6.4
17/02:30am 8.3 3.1 7.4 94 0.4 WNW 24 39 13 21 1007.4 1007.2 5.8
17/02:00am 8.8 7.2 7.9 94 0.4 NNW 6 9 3 5 1007.0 1006.9 3.0
17/01:30am 9.2 7.7 8.3 94 0.4 NW 6 6 3 3 1007.5 1007.4 3.0
17/01:00am 9.2 7.1 8.1 93 0.5 NNE 9 9 5 5 1007.5 1007.4 3.0
17/12:30am 10.2 8.8 9.0 92 0.6 NNE 6 6 3 3 1008.3 1008.2 3.0
17/12:00am 10.8 10.4 9.6 92 0.6 ESE 2 4 1 2 1008.7 1008.6 3.0
 
Date/Time
EDT
Temp
°C
App
Temp
°C
Dew
Point
°C
Rel
Hum
%
Delta-T
°C
Wind Press
QNH
hPa
Press
MSL
hPa
Rain since
9am
mm
Dir  Spd
km/h
Gust
km/h
Spd
kts
Gust
kts
16/11:30pm 10.7 10.2 9.5 92 0.6 S 2 4 1 2 1009.1 1009.0 3.0
16/11:00pm 10.7 10.2 9.5 92 0.6 ENE 2 4 1 2 1009.1 1009.0 3.0
16/10:30pm 10.8 10.0 9.6 92 0.6 ENE 4 6 2 3 1009.2 1009.1 3.0
16/10:00pm 10.9 9.7 9.7 92 0.6 ENE 6 7 3 4 1009.4 1009.3 3.0
16/09:30pm 11.0 10.2 9.6 91 0.7 SE 4 6 2 3 1009.6 1009.5 3.0
16/09:00pm 11.0 9.8 9.4 90 0.8 SSE 6 9 3 5 1009.4 1009.3 3.0
16/08:30pm 11.0 9.4 8.9 87 1.1 SE 7 9 4 5 1009.2 1009.1 3.0
16/08:00pm 12.1 10.6 9.3 83 1.4 SSE 7 11 4 6 1008.9 1008.8 3.0
16/07:30pm 12.7 11.1 8.8 77 2.0 SSW 7 13 4 7 1008.9 1008.8 3.0
16/07:00pm 13.9 10.9 9.1 73 2.5 SW 15 20 8 11 1008.4 1008.3 3.0
16/06:30pm 15.1 12.7 8.8 66 3.2 WSW 11 19 6 10 1008.0 1007.9 3.0
16/06:00pm 15.7 14.2 10.7 72 2.7 WSW 9 15 5 8 1007.8 1007.7 3.0
16/05:30pm 16.5 15.7 11.6 73 2.7 W 7 19 4 10 1007.6 1007.5 3.0
16/05:00pm 15.2 12.7 11.0 76 2.3 W 15 24 8 13 1007.8 1007.7 3.0
16/04:30pm 14.1 13.0 11.8 86 1.2 WNW 9 15 5 8 1007.8 1007.7 3.0
16/04:00pm 16.0 14.8 11.6 75 2.4 WNW 9 15 5 8 1007.6 1007.5 1.4
16/03:30pm 16.0 14.6 13.3 84 1.5 NNW 13 22 7 12 1008.0 1007.9 1.4
16/03:00pm 13.9 12.3 11.6 86 1.2 WNW 11 17 6 9 1008.4 1008.3 1.4
16/02:30pm 14.2 12.6 11.7 85 1.4 W 11 22 6 12 1008.8 1008.7 0.8
16/02:00pm 14.1 10.9 9.9 76 2.2 W 17 28 9 15 1008.9 1008.8 0.0
16/01:30pm 17.6 14.0 10.7 64 3.7 NW 20 33 11 18 1008.4 1008.3 0.0
16/01:00pm 16.7 12.9 9.9 64 3.6 NW 20 37 11 20 1008.7 1008.6 0.0
16/12:30pm 16.7 12.5 9.6 63 3.8 NW 22 41 12 22 1009.1 1009.0 0.0
16/12:00pm 15.6 10.9 9.1 65 3.4 NW 24 39 13 21 1009.2 1009.1 0.0
16/11:30am 15.3 11.5 9.9 70 2.8 NW 20 37 11 20 1009.5 1009.4 0.0
16/11:00am 14.7 11.1 9.9 73 2.5 NNW 19 26 10 14 1009.9 1009.8 0.0
16/10:30am 13.8 12.1 11.1 84 1.4 N 11 17 6 9 1010.0 1009.9 0.0
16/10:00am 12.7 10.4 10.4 86 1.2 N 13 26 7 14 1010.1 1010.0 0.0
16/09:30am 12.1 9.7 10.2 88 1.0 N 13 17 7 9 1010.4 1010.3 0.0
16/09:00am 11.6 10.3 10.0 90 0.8 N 7 15 4 8 1010.8 1010.7 0.0
16/08:30am 11.4 10.2 10.3 93 0.6 NNE 7 11 4 6 1010.4 1010.3 0.0
16/08:00am 11.2 10.0 10.3 94 0.5 NNE 7 9 4 5 1010.9 1010.8 0.0
16/07:30am 10.6 9.4 9.7 94 0.5 NE 6 7 3 4 1010.8 1010.7 0.0
16/07:00am 10.4 9.6 9.5 94 0.5 ENE 4 7 2 4 1011.1 1011.1 0.0
16/06:30am 10.4 9.5 9.3 93 0.6 SE 4 6 2 3 1011.3 1011.3 0.0
16/06:00am 10.9 10.9 9.8 93 0.6 CALM 0 0 0 0 1011.1 1011.1 0.0

Other formats

Comma delimited format used in spreadsheet applications
http://www.bom.gov.au/fwo/IDV60801/IDV60801.94863.axf

JavaScript Object Notation format (JSON) in row-major order
http://www.bom.gov.au/fwo/IDV60801/IDV60801.94863.json

Data quality

Most of these data are generated automatically and are frequently updated. Quality checks on data are not normally performed. It is possible for incorrect values to appear. Refer to information at About Latest Weather Observations and please check the disclaimer before using these data.